createdAt,value
2022-10-07T00:01:07.511Z,14.51
2022-10-07T00:03:36.261Z,14.48
2022-10-07T00:06:20.459Z,14.45
2022-10-07T00:08:54.056Z,14.41
2022-10-07T00:11:25.352Z,14.36
2022-10-07T00:14:03.667Z,14.40
2022-10-07T00:16:41.513Z,14.40
2022-10-07T00:19:13.655Z,14.41
2022-10-07T00:21:41.383Z,14.45
2022-10-07T00:24:11.218Z,14.46
2022-10-07T00:26:38.933Z,14.47
2022-10-07T00:29:07.197Z,14.44
2022-10-07T00:31:37.092Z,14.47
2022-10-07T00:34:05.403Z,14.45
2022-10-07T00:36:37.490Z,14.41
2022-10-07T00:39:10.392Z,14.38
2022-10-07T00:41:50.405Z,14.36
2022-10-07T00:44:45.799Z,14.35
2022-10-07T00:47:25.660Z,14.34
2022-10-07T00:49:56.107Z,14.35
2022-10-07T00:52:28.068Z,14.36
2022-10-07T00:54:59.824Z,14.35
2022-10-07T00:57:29.808Z,14.37
2022-10-07T00:59:57.759Z,14.37
2022-10-07T01:02:27.442Z,14.37
2022-10-07T01:04:58.788Z,14.37
2022-10-07T01:07:28.310Z,14.39
2022-10-07T01:09:59.583Z,14.39
2022-10-07T01:13:05.458Z,14.39
2022-10-07T01:15:52.486Z,14.35
2022-10-07T01:18:41.014Z,14.32
2022-10-07T01:21:31.573Z,14.30
2022-10-07T01:24:42.956Z,14.27
2022-10-07T01:27:24.369Z,14.25
2022-10-07T01:30:02.950Z,14.23
2022-10-07T01:32:47.912Z,14.21
2022-10-07T01:35:24.830Z,14.19
2022-10-07T01:38:01.423Z,14.17
2022-10-07T01:40:40.798Z,14.18
2022-10-07T01:43:08.956Z,14.18
2022-10-07T01:45:41.210Z,14.20
2022-10-07T01:48:09.316Z,14.22
2022-10-07T01:50:39.286Z,14.26
2022-10-07T01:53:37.898Z,14.28
2022-10-07T01:56:33.137Z,14.30
2022-10-07T01:59:22.058Z,14.32
2022-10-07T02:02:14.196Z,14.36
2022-10-07T02:05:38.113Z,14.39
2022-10-07T02:09:05.344Z,14.40
2022-10-07T02:11:39.883Z,14.39
2022-10-07T02:14:38.272Z,14.37
2022-10-07T02:17:15.552Z,14.37
2022-10-07T02:19:49.652Z,14.35
2022-10-07T02:22:21.010Z,14.37
2022-10-07T02:24:55.442Z,14.39
2022-10-07T02:27:29.133Z,14.37
2022-10-07T02:30:08.447Z,14.34
2022-10-07T02:32:39.409Z,14.34
2022-10-07T02:35:19.002Z,14.31
2022-10-07T02:37:49.503Z,14.28
2022-10-07T02:40:17.909Z,14.27
2022-10-07T02:42:59.091Z,14.26
2022-10-07T02:45:51.750Z,14.27
2022-10-07T02:48:28.708Z,14.28
2022-10-07T02:51:02.976Z,14.27
2022-10-07T02:53:32.788Z,14.29
2022-10-07T02:56:02.645Z,14.31
2022-10-07T02:58:30.984Z,14.29
2022-10-07T03:01:02.521Z,14.29
2022-10-07T03:03:30.592Z,14.29
2022-10-07T03:06:05.681Z,14.34
2022-10-07T03:08:34.913Z,14.37
2022-10-07T03:11:02.933Z,14.43
2022-10-07T03:13:31.594Z,14.45
2022-10-07T03:16:05.647Z,14.44
2022-10-07T03:18:34.541Z,14.41
2022-10-07T03:21:14.631Z,14.38
2022-10-07T03:23:42.597Z,14.37
2022-10-07T03:26:12.199Z,14.34
2022-10-07T03:28:40.095Z,14.35
2022-10-07T03:31:10.555Z,14.37
2022-10-07T03:33:43.364Z,14.38
2022-10-07T03:36:10.979Z,14.38
2022-10-07T03:38:41.186Z,14.40
2022-10-07T03:41:10.551Z,14.40
2022-10-07T03:43:39.429Z,14.40
2022-10-07T03:46:08.436Z,14.35
2022-10-07T03:48:38.098Z,14.31
2022-10-07T03:51:05.952Z,14.27
2022-10-07T03:53:40.168Z,14.22
2022-10-07T03:56:08.847Z,14.17
2022-10-07T03:58:39.359Z,14.12
2022-10-07T04:01:15.221Z,14.07
2022-10-07T04:03:57.227Z,14.02
2022-10-07T04:06:25.689Z,13.98
2022-10-07T04:08:55.447Z,13.93
2022-10-07T04:11:24.496Z,13.93
2022-10-07T04:13:55.726Z,13.90
2022-10-07T04:16:26.178Z,13.88
2022-10-07T04:18:57.331Z,13.87
2022-10-07T04:21:28.331Z,13.87
2022-10-07T04:23:55.918Z,13.86
2022-10-07T04:26:23.785Z,13.89
2022-10-07T04:28:52.210Z,13.90
2022-10-07T04:31:22.520Z,13.91
2022-10-07T04:33:57.231Z,13.94
2022-10-07T04:36:29.720Z,13.95
2022-10-07T04:39:09.625Z,13.93
2022-10-07T04:41:42.996Z,13.94
2022-10-07T04:44:19.234Z,13.93
2022-10-07T04:46:56.993Z,13.94
2022-10-07T04:49:27.853Z,13.94
2022-10-07T04:51:56.823Z,13.97
2022-10-07T04:54:28.618Z,14.00
2022-10-07T04:56:57.092Z,14.02
2022-10-07T04:59:29.940Z,14.04
2022-10-07T05:01:59.147Z,14.08
2022-10-07T05:04:29.079Z,14.12
2022-10-07T05:06:58.172Z,14.14
2022-10-07T05:09:26.642Z,14.12
2022-10-07T05:11:57.523Z,14.14
2022-10-07T05:14:25.940Z,14.18
2022-10-07T05:16:55.889Z,14.22
2022-10-07T05:19:27.209Z,14.28
2022-10-07T05:21:55.461Z,14.30
2022-10-07T05:24:23.865Z,14.35
2022-10-07T05:26:51.790Z,14.37
2022-10-07T05:31:51.382Z,14.46
2022-10-07T05:34:22.690Z,14.53
2022-10-07T05:36:50.588Z,14.59
2022-10-07T05:39:18.083Z,14.67
2022-10-07T05:41:52.476Z,14.77
2022-10-07T05:44:25.332Z,14.85
2022-10-07T05:46:55.689Z,14.92
2022-10-07T05:49:24.421Z,15.00
2022-10-07T05:51:52.165Z,15.06
2022-10-07T05:54:20.876Z,15.12
2022-10-07T05:56:49.557Z,15.19
2022-10-07T05:59:20.539Z,15.24
2022-10-07T06:01:49.349Z,15.32
2022-10-07T06:04:21.221Z,15.37
2022-10-07T06:06:50.915Z,15.41
2022-10-07T06:09:37.287Z,15.45
2022-10-07T06:12:29.871Z,15.49
2022-10-07T06:14:59.471Z,15.54
2022-10-07T06:17:28.061Z,15.58
2022-10-07T06:19:58.739Z,15.64
2022-10-07T06:22:27.105Z,15.70
2022-10-07T06:24:58.853Z,15.76
2022-10-07T06:27:27.104Z,15.80
2022-10-07T06:29:55.532Z,15.85
2022-10-07T06:32:23.503Z,15.88
2022-10-07T06:34:51.761Z,15.92
2022-10-07T06:37:20.691Z,15.95
2022-10-07T06:39:48.415Z,16.00
2022-10-07T06:42:16.309Z,16.01
2022-10-07T06:45:04.448Z,16.03
2022-10-07T06:47:32.657Z,16.07
2022-10-07T06:50:00.160Z,16.13
2022-10-07T06:52:27.959Z,16.16
2022-10-07T06:54:55.622Z,16.22
2022-10-07T07:00:12.466Z,16.34
2022-10-07T07:02:40.415Z,16.38
2022-10-07T07:05:09.090Z,16.43
2022-10-07T07:07:38.346Z,16.46
2022-10-07T07:10:07.008Z,16.50
2022-10-07T07:12:40.818Z,16.54
2022-10-07T07:15:10.058Z,16.61
2022-10-07T07:17:39.279Z,16.64
2022-10-07T07:20:07.744Z,16.71
2022-10-07T07:22:35.823Z,16.78
2022-10-07T07:25:03.548Z,16.85
2022-10-07T07:27:31.453Z,16.91
2022-10-07T07:29:59.700Z,16.98
2022-10-07T07:32:30.223Z,17.06
2022-10-07T07:35:00.694Z,17.13
2022-10-07T07:37:30.229Z,17.21
2022-10-07T07:39:58.367Z,17.29
2022-10-07T07:42:28.170Z,17.38
2022-10-07T07:44:57.606Z,17.45
2022-10-07T07:47:26.787Z,17.51
2022-10-07T07:49:54.480Z,17.60
2022-10-07T07:52:28.269Z,17.68
2022-10-07T07:55:15.136Z,17.76
2022-10-07T07:57:43.370Z,17.84
2022-10-07T08:00:12.781Z,17.89
2022-10-07T08:02:53.793Z,17.94
2022-10-07T08:05:24.049Z,17.97
2022-10-07T08:07:55.380Z,17.96
2022-10-07T08:10:24.892Z,17.97
2022-10-07T08:12:52.657Z,17.97
2022-10-07T08:15:20.146Z,18.02
2022-10-07T08:17:48.154Z,18.00
2022-10-07T08:20:16.516Z,17.96
2022-10-07T08:22:45.957Z,17.89
2022-10-07T08:25:16.909Z,17.90
2022-10-07T08:27:46.354Z,17.93
2022-10-07T08:30:14.265Z,17.96
2022-10-07T08:32:41.975Z,18.02
2022-10-07T08:35:09.740Z,18.10
2022-10-07T08:37:37.171Z,18.20
2022-10-07T08:40:05.441Z,18.32
2022-10-07T08:42:42.744Z,18.42
2022-10-07T08:45:22.459Z,18.52
2022-10-07T08:47:51.466Z,18.58
2022-10-07T08:50:31.047Z,18.66
2022-10-07T08:53:08.478Z,18.76
2022-10-07T08:55:46.410Z,18.82
2022-10-07T08:59:04.528Z,18.87
2022-10-07T09:02:09.378Z,18.92
2022-10-07T09:04:53.059Z,18.95
2022-10-07T09:07:37.067Z,18.99
2022-10-07T09:10:10.700Z,18.97
2022-10-07T09:13:11.643Z,18.97
2022-10-07T09:16:12.073Z,18.95
2022-10-07T09:18:53.453Z,18.97
2022-10-07T09:21:31.413Z,18.98
2022-10-07T09:24:16.690Z,19.01
2022-10-07T09:26:44.592Z,19.02
2022-10-07T09:29:12.423Z,19.05
2022-10-07T09:31:40.266Z,19.05
2022-10-07T09:34:22.324Z,19.02
2022-10-07T09:37:19.789Z,18.94
2022-10-07T09:39:51.026Z,18.91
2022-10-07T09:42:36.568Z,18.91
2022-10-07T09:45:31.570Z,18.87
2022-10-07T09:48:17.186Z,18.90
2022-10-07T09:50:46.747Z,18.92
2022-10-07T09:53:26.156Z,18.95
2022-10-07T09:55:55.454Z,18.95
2022-10-07T09:58:30.787Z,18.97
2022-10-07T10:01:01.283Z,18.98
2022-10-07T10:03:35.149Z,18.99
2022-10-07T10:06:09.857Z,19.03
2022-10-07T10:08:45.183Z,19.13
2022-10-07T10:11:18.743Z,19.23
2022-10-07T10:13:50.000Z,19.31
2022-10-07T10:16:34.480Z,19.37
2022-10-07T10:19:21.377Z,19.42
2022-10-07T10:21:58.015Z,19.48
2022-10-07T10:24:49.661Z,19.58
2022-10-07T10:27:28.112Z,19.64
2022-10-07T10:30:09.723Z,19.75
2022-10-07T10:33:01.074Z,19.79
2022-10-07T10:35:40.526Z,19.86
2022-10-07T10:38:27.694Z,19.88
2022-10-07T10:41:29.363Z,19.84
2022-10-07T10:44:27.315Z,19.84
2022-10-07T10:47:42.293Z,19.89
2022-10-07T10:50:22.117Z,19.91
2022-10-07T10:53:19.918Z,19.95
2022-10-07T10:56:25.566Z,19.92
2022-10-07T10:59:19.427Z,19.90
2022-10-07T11:02:07.431Z,19.92
2022-10-07T11:05:17.447Z,19.97
2022-10-07T11:07:56.001Z,19.99
2022-10-07T11:10:37.318Z,19.99
2022-10-07T11:13:13.547Z,19.99
2022-10-07T11:15:48.805Z,20.05
2022-10-07T11:18:32.889Z,20.07
2022-10-07T11:21:07.947Z,20.06
2022-10-07T11:24:02.275Z,20.09
2022-10-07T11:26:39.647Z,20.11
2022-10-07T11:29:34.242Z,20.16
2022-10-07T11:32:14.170Z,20.21
2022-10-07T11:35:21.046Z,20.23
2022-10-07T11:38:15.828Z,20.28
2022-10-07T11:41:08.541Z,20.35
2022-10-07T11:43:56.247Z,20.39
2022-10-07T11:46:28.639Z,20.40
2022-10-07T11:49:29.676Z,20.42
2022-10-07T11:52:24.577Z,20.46
2022-10-07T11:55:08.003Z,20.48
2022-10-07T11:57:43.305Z,20.51
2022-10-07T12:00:26.400Z,20.57
2022-10-07T12:03:09.930Z,20.58
2022-10-07T12:05:37.577Z,20.59
2022-10-07T12:08:33.072Z,20.53
2022-10-07T12:11:13.092Z,20.53
2022-10-07T12:13:46.018Z,20.52
2022-10-07T12:16:31.693Z,20.58
2022-10-07T12:19:08.232Z,20.61
2022-10-07T12:22:00.613Z,20.60
2022-10-07T12:24:34.661Z,20.59
2022-10-07T12:27:29.548Z,20.55
2022-10-07T12:30:02.486Z,20.49
2022-10-07T12:32:53.048Z,20.51
2022-10-07T12:35:37.180Z,20.50
2022-10-07T12:38:10.978Z,20.48
2022-10-07T12:40:39.537Z,20.47
2022-10-07T12:43:36.354Z,20.48
2022-10-07T12:46:18.757Z,20.50
2022-10-07T12:49:00.131Z,20.55
2022-10-07T12:51:43.579Z,20.62
2022-10-07T12:54:34.221Z,20.68
2022-10-07T12:57:02.814Z,20.70
2022-10-07T13:00:00.317Z,20.74
2022-10-07T13:02:43.086Z,20.71
2022-10-07T13:05:41.836Z,20.70
2022-10-07T13:08:49.104Z,20.74
2022-10-07T13:11:43.232Z,20.78
2022-10-07T13:14:37.110Z,20.83
2022-10-07T13:17:25.805Z,20.92
2022-10-07T13:20:44.876Z,20.99
2022-10-07T13:23:23.242Z,21.08
2022-10-07T13:25:57.539Z,21.11
2022-10-07T13:28:37.302Z,21.17
2022-10-07T13:31:23.615Z,21.26
2022-10-07T13:33:53.211Z,21.36
2022-10-07T13:36:23.430Z,21.45
2022-10-07T13:38:54.981Z,21.46
2022-10-07T13:41:30.742Z,21.49
2022-10-07T13:44:05.213Z,21.49
2022-10-07T13:46:36.736Z,21.55
2022-10-07T13:49:05.330Z,21.52
2022-10-07T13:51:42.838Z,21.52
2022-10-07T13:54:25.596Z,21.56
2022-10-07T13:56:53.774Z,21.58
2022-10-07T13:59:22.268Z,21.59
2022-10-07T14:01:53.764Z,21.59
2022-10-07T14:04:35.654Z,21.61
2022-10-07T14:07:11.977Z,21.65
2022-10-07T14:10:01.841Z,21.69
2022-10-07T14:12:49.968Z,21.75
2022-10-07T14:15:25.739Z,21.77
2022-10-07T14:18:06.426Z,21.76
2022-10-07T14:20:41.014Z,21.75
2022-10-07T14:23:26.297Z,21.79
2022-10-07T14:25:57.809Z,21.78
2022-10-07T14:28:25.294Z,21.69
2022-10-07T14:31:26.562Z,21.68
2022-10-07T14:34:15.885Z,21.65
2022-10-07T14:37:09.684Z,21.62
2022-10-07T14:39:44.312Z,21.53
2022-10-07T14:42:14.784Z,21.54
2022-10-07T14:44:45.761Z,21.55
2022-10-07T14:47:24.009Z,21.52
2022-10-07T14:49:53.522Z,21.49
2022-10-07T14:52:32.420Z,21.46
2022-10-07T14:55:13.089Z,21.39
2022-10-07T14:57:40.545Z,21.35
2022-10-07T15:00:39.439Z,21.24
2022-10-07T15:03:07.380Z,21.15
2022-10-07T15:05:35.250Z,21.07
2022-10-07T15:08:03.334Z,21.01
2022-10-07T15:10:32.752Z,20.95
2022-10-07T15:13:01.736Z,20.88
2022-10-07T15:15:29.199Z,20.81
2022-10-07T15:17:56.958Z,20.75
2022-10-07T15:20:24.449Z,20.68
2022-10-07T15:22:52.261Z,20.58
2022-10-07T15:25:21.101Z,20.50
2022-10-07T15:27:49.125Z,20.40
2022-10-07T15:30:16.725Z,20.28
2022-10-07T15:32:44.545Z,20.15
2022-10-07T15:35:12.541Z,19.97
2022-10-07T15:37:40.005Z,19.83
2022-10-07T15:40:08.516Z,19.67
2022-10-07T15:42:36.342Z,19.51
2022-10-07T15:45:04.187Z,19.33
2022-10-07T15:47:33.377Z,19.19
2022-10-07T15:50:01.249Z,19.02
2022-10-07T15:52:29.667Z,18.87
2022-10-07T15:54:57.737Z,18.72
2022-10-07T15:57:25.576Z,18.59
2022-10-07T15:59:54.718Z,18.47
2022-10-07T16:02:22.543Z,18.35
2022-10-07T16:04:50.848Z,18.23
2022-10-07T16:07:18.533Z,18.13
2022-10-07T16:09:46.134Z,18.01
2022-10-07T16:12:13.834Z,17.92
2022-10-07T16:14:41.363Z,17.85
2022-10-07T16:17:08.841Z,17.77
2022-10-07T16:19:36.742Z,17.67
2022-10-07T16:22:04.310Z,17.58
2022-10-07T16:24:35.302Z,17.49
2022-10-07T16:27:03.756Z,17.41
2022-10-07T16:29:49.985Z,17.33
2022-10-07T16:32:17.744Z,17.25
2022-10-07T16:34:45.356Z,17.19
2022-10-07T16:37:14.122Z,17.13
2022-10-07T16:39:42.321Z,17.07
2022-10-07T16:42:10.552Z,17.01
2022-10-07T16:44:38.823Z,16.94
2022-10-07T16:47:06.682Z,16.89
2022-10-07T16:49:36.437Z,16.83
2022-10-07T16:52:04.481Z,16.79
2022-10-07T16:54:35.222Z,16.76
2022-10-07T16:57:02.818Z,16.72
2022-10-07T16:59:30.872Z,16.67
2022-10-07T17:02:02.301Z,16.65
2022-10-07T17:04:30.246Z,16.62
2022-10-07T17:06:58.444Z,16.60
2022-10-07T17:09:25.942Z,16.59
2022-10-07T17:11:53.854Z,16.57
2022-10-07T17:14:23.175Z,16.57
2022-10-07T17:16:56.785Z,16.57
2022-10-07T17:19:27.954Z,16.58
2022-10-07T17:21:59.519Z,16.61
2022-10-07T17:24:27.567Z,16.63
2022-10-07T17:26:56.229Z,16.63
2022-10-07T17:29:26.439Z,16.64
2022-10-07T17:31:54.932Z,16.60
2022-10-07T17:34:23.434Z,16.61
2022-10-07T17:36:51.206Z,16.58
2022-10-07T17:39:19.504Z,16.57
2022-10-07T17:41:48.078Z,16.55
2022-10-07T17:44:16.218Z,16.54
2022-10-07T17:46:44.406Z,16.52
2022-10-07T17:49:15.174Z,16.51
2022-10-07T17:51:43.912Z,16.52
2022-10-07T17:54:14.009Z,16.52
2022-10-07T17:56:45.174Z,16.51
2022-10-07T17:59:14.326Z,16.51
2022-10-07T18:01:42.413Z,16.51
2022-10-07T18:04:15.472Z,16.52
2022-10-07T18:06:46.880Z,16.53
2022-10-07T18:09:18.576Z,16.54
2022-10-07T18:12:05.145Z,16.58
2022-10-07T18:14:54.023Z,16.63
2022-10-07T18:17:24.634Z,16.67
2022-10-07T18:19:52.587Z,16.70
2022-10-07T18:22:20.732Z,16.73
2022-10-07T18:24:48.220Z,16.75
2022-10-07T18:27:15.852Z,16.76
2022-10-07T18:29:44.026Z,16.76
2022-10-07T18:32:11.545Z,16.75
2022-10-07T18:34:39.206Z,16.74
2022-10-07T18:37:07.857Z,16.73
2022-10-07T18:39:35.386Z,16.71
2022-10-07T18:42:04.511Z,16.68
2022-10-07T18:44:32.332Z,16.67
2022-10-07T18:47:00.229Z,16.64
2022-10-07T18:49:27.979Z,16.62
2022-10-07T18:51:55.606Z,16.62
2022-10-07T18:54:23.112Z,16.62
2022-10-07T18:56:52.051Z,16.61
2022-10-07T18:59:20.286Z,16.59
2022-10-07T19:01:50.893Z,16.59
2022-10-07T19:04:20.197Z,16.58
2022-10-07T19:06:48.355Z,16.57
2022-10-07T19:09:20.270Z,16.58
2022-10-07T19:11:48.749Z,16.60
2022-10-07T19:14:16.753Z,16.61
2022-10-07T19:16:49.325Z,16.62
2022-10-07T19:19:21.318Z,16.63
2022-10-07T19:21:52.995Z,16.61
2022-10-07T19:24:41.644Z,16.61
2022-10-07T19:27:09.268Z,16.60
2022-10-07T19:29:37.001Z,16.58
2022-10-07T19:32:08.569Z,16.57
2022-10-07T19:34:36.893Z,16.55
2022-10-07T19:37:04.652Z,16.55
2022-10-07T19:39:32.168Z,16.54
2022-10-07T19:42:00.068Z,16.53
2022-10-07T19:44:27.753Z,16.53
2022-10-07T19:46:55.803Z,16.54
2022-10-07T19:49:23.580Z,16.53
2022-10-07T19:51:51.045Z,16.52
2022-10-07T19:54:18.837Z,16.53
2022-10-07T19:56:47.233Z,16.51
2022-10-07T19:59:15.114Z,16.51
2022-10-07T20:01:45.382Z,16.49
2022-10-07T20:04:24.417Z,16.49
2022-10-07T20:06:52.194Z,16.48
2022-10-07T20:09:20.451Z,16.47
2022-10-07T20:11:48.016Z,16.49
2022-10-07T20:14:16.295Z,16.49
2022-10-07T20:16:44.226Z,16.51
2022-10-07T20:19:15.936Z,16.52
2022-10-07T20:21:44.284Z,16.52
2022-10-07T20:24:16.557Z,16.54
2022-10-07T20:26:45.139Z,16.55
2022-10-07T20:29:15.269Z,16.52
2022-10-07T20:31:44.619Z,16.51
2022-10-07T20:34:16.215Z,16.52
2022-10-07T20:36:44.489Z,16.49
2022-10-07T20:39:37.547Z,16.49
2022-10-07T20:42:21.747Z,16.47
2022-10-07T20:44:50.721Z,16.44
2022-10-07T20:47:20.617Z,16.45
2022-10-07T20:49:50.669Z,16.43
2022-10-07T20:52:22.635Z,16.42
2022-10-07T20:54:51.544Z,16.40
2022-10-07T20:57:23.684Z,16.37
2022-10-07T20:59:51.323Z,16.36
2022-10-07T21:02:21.462Z,16.34
2022-10-07T21:04:49.520Z,16.34
2022-10-07T21:07:19.196Z,16.34
2022-10-07T21:09:47.851Z,16.33
2022-10-07T21:12:17.210Z,16.32
2022-10-07T21:14:44.906Z,16.29
2022-10-07T21:17:12.797Z,16.29
2022-10-07T21:19:40.623Z,16.26
2022-10-07T21:22:08.694Z,16.25
2022-10-07T21:24:36.453Z,16.24
2022-10-07T21:27:07.499Z,16.21
2022-10-07T21:29:39.165Z,16.20
2022-10-07T21:32:09.764Z,16.18
2022-10-07T21:34:38.230Z,16.13
2022-10-07T21:37:05.942Z,16.11
2022-10-07T21:39:33.733Z,16.05
2022-10-07T21:42:01.906Z,16.01
2022-10-07T21:44:29.551Z,16.00
2022-10-07T21:46:59.888Z,15.96
2022-10-07T21:49:27.533Z,15.92
2022-10-07T21:51:55.184Z,15.88
2022-10-07T21:54:22.955Z,15.83
2022-10-07T21:56:50.436Z,15.79
2022-10-07T21:59:18.177Z,15.76
2022-10-07T22:01:45.901Z,15.73
2022-10-07T22:04:18.688Z,15.69
2022-10-07T22:07:04.964Z,15.66
2022-10-07T22:09:33.382Z,15.63
2022-10-07T22:12:01.196Z,15.61
2022-10-07T22:14:28.844Z,15.59
2022-10-07T22:16:56.345Z,15.57
2022-10-07T22:19:24.020Z,15.54
2022-10-07T22:21:51.695Z,15.53
2022-10-07T22:24:19.180Z,15.52
2022-10-07T22:26:48.329Z,15.53
2022-10-07T22:29:18.753Z,15.52
2022-10-07T22:31:47.117Z,15.51
2022-10-07T22:34:33.677Z,15.49
2022-10-07T22:37:02.186Z,15.50
2022-10-07T22:39:30.277Z,15.50
2022-10-07T22:41:58.655Z,15.48
2022-10-07T22:44:28.143Z,15.47
2022-10-07T22:46:59.720Z,15.46
2022-10-07T22:49:29.979Z,15.44
2022-10-07T22:52:00.071Z,15.45
2022-10-07T22:54:27.795Z,15.45
2022-10-07T22:56:55.658Z,15.45
2022-10-07T22:59:23.464Z,15.45
2022-10-07T23:01:50.945Z,15.45
2022-10-07T23:04:20.324Z,15.45
2022-10-07T23:06:48.398Z,15.44
2022-10-07T23:09:15.945Z,15.46
2022-10-07T23:11:43.888Z,15.45
2022-10-07T23:14:12.645Z,15.45
2022-10-07T23:16:40.147Z,15.45
2022-10-07T23:19:09.183Z,15.41
2022-10-07T23:21:37.091Z,15.39
2022-10-07T23:24:08.095Z,15.36
2022-10-07T23:26:37.121Z,15.33
2022-10-07T23:29:07.691Z,15.31
2022-10-07T23:31:35.623Z,15.30
2022-10-07T23:34:04.025Z,15.26
2022-10-07T23:36:33.323Z,15.21
2022-10-07T23:39:01.611Z,15.16
2022-10-07T23:41:31.166Z,15.10
2022-10-07T23:44:02.218Z,15.04
2022-10-07T23:46:36.302Z,15.01
2022-10-07T23:49:04.464Z,14.98
2022-10-07T23:51:33.195Z,14.91
2022-10-07T23:54:03.697Z,14.90
2022-10-07T23:56:32.304Z,14.88
2022-10-07T23:59:01.653Z,14.88
